sensor_id;sensor_type;location;lat;lon;timestamp;P1;durP1;ratioP1;P2;durP2;ratioP2
75167;SDS011;63748;48.088;11.476;2022-12-07T00:00:08;10.57;;;5.20;;
75167;SDS011;63748;48.088;11.476;2022-12-07T00:02:34;11.02;;;5.28;;
75167;SDS011;63748;48.088;11.476;2022-12-07T00:05:00;10.25;;;4.72;;
75167;SDS011;63748;48.088;11.476;2022-12-07T00:07:26;8.10;;;5.18;;
75167;SDS011;63748;48.088;11.476;2022-12-07T00:09:52;9.93;;;5.30;;
75167;SDS011;63748;48.088;11.476;2022-12-07T00:12:18;9.15;;;5.18;;
75167;SDS011;63748;48.088;11.476;2022-12-07T00:14:44;10.00;;;5.55;;
75167;SDS011;63748;48.088;11.476;2022-12-07T00:17:10;9.55;;;5.05;;
75167;SDS011;63748;48.088;11.476;2022-12-07T00:19:36;8.00;;;4.50;;
75167;SDS011;63748;48.088;11.476;2022-12-07T00:22:02;9.88;;;4.80;;
75167;SDS011;63748;48.088;11.476;2022-12-07T00:24:28;9.07;;;4.80;;
75167;SDS011;63748;48.088;11.476;2022-12-07T00:26:54;8.02;;;4.78;;
75167;SDS011;63748;48.088;11.476;2022-12-07T00:29:21;8.18;;;5.07;;
75167;SDS011;63748;48.088;11.476;2022-12-07T00:31:48;7.82;;;4.50;;
75167;SDS011;63748;48.088;11.476;2022-12-07T00:34:15;8.93;;;4.85;;
75167;SDS011;63748;48.088;11.476;2022-12-07T00:36:42;7.45;;;5.20;;
75167;SDS011;63748;48.088;11.476;2022-12-07T00:39:08;7.60;;;4.65;;
75167;SDS011;63748;48.088;11.476;2022-12-07T00:41:34;6.97;;;4.05;;
75167;SDS011;63748;48.088;11.476;2022-12-07T00:44:00;6.38;;;4.15;;
75167;SDS011;63748;48.088;11.476;2022-12-07T00:46:26;8.45;;;4.45;;
75167;SDS011;63748;48.088;11.476;2022-12-07T00:48:52;8.55;;;5.10;;
75167;SDS011;63748;48.088;11.476;2022-12-07T00:51:20;8.30;;;4.50;;
75167;SDS011;63748;48.088;11.476;2022-12-07T00:53:46;8.32;;;5.20;;
75167;SDS011;63748;48.088;11.476;2022-12-07T00:56:13;7.78;;;4.72;;
75167;SDS011;63748;48.088;11.476;2022-12-07T00:58:39;6.43;;;3.97;;
75167;SDS011;63748;48.088;11.476;2022-12-07T01:01:06;10.13;;;5.25;;
75167;SDS011;63748;48.088;11.476;2022-12-07T01:03:33;8.15;;;4.38;;
75167;SDS011;63748;48.088;11.476;2022-12-07T01:05:59;8.05;;;4.50;;
75167;SDS011;63748;48.088;11.476;2022-12-07T01:08:26;7.38;;;5.00;;
75167;SDS011;63748;48.088;11.476;2022-12-07T01:11:06;7.97;;;4.68;;
75167;SDS011;63748;48.088;11.476;2022-12-07T01:13:32;7.40;;;4.57;;
75167;SDS011;63748;48.088;11.476;2022-12-07T01:16:00;7.45;;;4.40;;
75167;SDS011;63748;48.088;11.476;2022-12-07T01:18:29;5.75;;;4.28;;
75167;SDS011;63748;48.088;11.476;2022-12-07T01:21:06;7.50;;;4.15;;
75167;SDS011;63748;48.088;11.476;2022-12-07T01:23:33;7.05;;;4.57;;
75167;SDS011;63748;48.088;11.476;2022-12-07T01:26:00;9.05;;;5.03;;
75167;SDS011;63748;48.088;11.476;2022-12-07T01:28:26;7.30;;;4.78;;
75167;SDS011;63748;48.088;11.476;2022-12-07T01:30:59;7.22;;;4.38;;
75167;SDS011;63748;48.088;11.476;2022-12-07T01:33:26;7.35;;;4.82;;
75167;SDS011;63748;48.088;11.476;2022-12-07T01:35:53;12.18;;;4.80;;
75167;SDS011;63748;48.088;11.476;2022-12-07T01:38:19;8.60;;;4.63;;
75167;SDS011;63748;48.088;11.476;2022-12-07T01:40:45;7.10;;;5.00;;
75167;SDS011;63748;48.088;11.476;2022-12-07T01:43:19;7.53;;;4.63;;
75167;SDS011;63748;48.088;11.476;2022-12-07T01:45:45;7.10;;;4.25;;
75167;SDS011;63748;48.088;11.476;2022-12-07T01:48:11;8.10;;;4.47;;
75167;SDS011;63748;48.088;11.476;2022-12-07T01:50:39;7.00;;;4.53;;
75167;SDS011;63748;48.088;11.476;2022-12-07T01:53:06;7.50;;;4.75;;
75167;SDS011;63748;48.088;11.476;2022-12-07T01:55:34;7.97;;;4.40;;
75167;SDS011;63748;48.088;11.476;2022-12-07T01:58:01;8.70;;;3.88;;
75167;SDS011;63748;48.088;11.476;2022-12-07T02:00:27;6.90;;;4.40;;
75167;SDS011;63748;48.088;11.476;2022-12-07T02:02:54;8.68;;;4.55;;
75167;SDS011;63748;48.088;11.476;2022-12-07T02:05:21;7.82;;;4.70;;
75167;SDS011;63748;48.088;11.476;2022-12-07T02:07:48;8.73;;;4.70;;
75167;SDS011;63748;48.088;11.476;2022-12-07T02:10:33;9.70;;;5.22;;
75167;SDS011;63748;48.088;11.476;2022-12-07T02:13:01;9.95;;;4.78;;
75167;SDS011;63748;48.088;11.476;2022-12-07T02:31:20;10.07;;;4.30;;
75167;SDS011;63748;48.088;11.476;2022-12-07T02:33:52;8.68;;;5.03;;
75167;SDS011;63748;48.088;11.476;2022-12-07T02:36:21;7.70;;;4.43;;
75167;SDS011;63748;48.088;11.476;2022-12-07T02:38:55;8.52;;;5.13;;
75167;SDS011;63748;48.088;11.476;2022-12-07T02:41:28;8.80;;;5.20;;
75167;SDS011;63748;48.088;11.476;2022-12-07T02:43:56;6.85;;;4.63;;
75167;SDS011;63748;48.088;11.476;2022-12-07T02:46:24;8.90;;;4.95;;
75167;SDS011;63748;48.088;11.476;2022-12-07T02:48:51;7.55;;;4.63;;
75167;SDS011;63748;48.088;11.476;2022-12-07T02:51:18;9.73;;;4.70;;
75167;SDS011;63748;48.088;11.476;2022-12-07T02:53:44;8.02;;;4.47;;
75167;SDS011;63748;48.088;11.476;2022-12-07T02:59:07;6.78;;;4.47;;
75167;SDS011;63748;48.088;11.476;2022-12-07T03:04:25;9.93;;;4.78;;
75167;SDS011;63748;48.088;11.476;2022-12-07T03:06:54;8.90;;;4.97;;
75167;SDS011;63748;48.088;11.476;2022-12-07T03:12:04;8.98;;;4.80;;
75167;SDS011;63748;48.088;11.476;2022-12-07T03:14:35;8.13;;;4.65;;
75167;SDS011;63748;48.088;11.476;2022-12-07T03:17:24;11.00;;;5.75;;
75167;SDS011;63748;48.088;11.476;2022-12-07T03:19:51;6.63;;;4.07;;
75167;SDS011;63748;48.088;11.476;2022-12-07T03:22:19;9.05;;;4.80;;
75167;SDS011;63748;48.088;11.476;2022-12-07T03:24:47;7.15;;;3.97;;
75167;SDS011;63748;48.088;11.476;2022-12-07T03:27:21;8.63;;;4.72;;
75167;SDS011;63748;48.088;11.476;2022-12-07T03:29:50;7.47;;;4.72;;
75167;SDS011;63748;48.088;11.476;2022-12-07T03:32:24;8.35;;;4.85;;
75167;SDS011;63748;48.088;11.476;2022-12-07T03:35:03;9.43;;;5.65;;
75167;SDS011;63748;48.088;11.476;2022-12-07T03:37:42;7.28;;;4.18;;
75167;SDS011;63748;48.088;11.476;2022-12-07T03:43:09;6.75;;;4.25;;
75167;SDS011;63748;48.088;11.476;2022-12-07T03:45:40;8.52;;;4.72;;
75167;SDS011;63748;48.088;11.476;2022-12-07T03:51:18;11.00;;;5.28;;
75167;SDS011;63748;48.088;11.476;2022-12-07T03:53:29;10.63;;;5.10;;
75167;SDS011;63748;48.088;11.476;2022-12-07T03:55:57;9.25;;;4.78;;
75167;SDS011;63748;48.088;11.476;2022-12-07T03:58:24;8.43;;;4.63;;
75167;SDS011;63748;48.088;11.476;2022-12-07T04:00:50;9.02;;;4.57;;
75167;SDS011;63748;48.088;11.476;2022-12-07T04:03:17;11.05;;;5.05;;
75167;SDS011;63748;48.088;11.476;2022-12-07T04:05:43;9.15;;;5.55;;
75167;SDS011;63748;48.088;11.476;2022-12-07T04:08:10;7.47;;;5.15;;
75167;SDS011;63748;48.088;11.476;2022-12-07T04:10:36;10.32;;;5.07;;
75167;SDS011;63748;48.088;11.476;2022-12-07T04:13:02;9.65;;;4.78;;
75167;SDS011;63748;48.088;11.476;2022-12-07T04:15:28;8.38;;;4.63;;
75167;SDS011;63748;48.088;11.476;2022-12-07T04:17:54;11.50;;;5.85;;
75167;SDS011;63748;48.088;11.476;2022-12-07T04:20:20;9.82;;;5.57;;
75167;SDS011;63748;48.088;11.476;2022-12-07T04:22:46;10.68;;;5.45;;
75167;SDS011;63748;48.088;11.476;2022-12-07T04:25:12;10.43;;;5.15;;
75167;SDS011;63748;48.088;11.476;2022-12-07T04:27:38;8.50;;;4.30;;
75167;SDS011;63748;48.088;11.476;2022-12-07T04:30:04;9.40;;;4.95;;
75167;SDS011;63748;48.088;11.476;2022-12-07T04:32:31;9.75;;;5.35;;
75167;SDS011;63748;48.088;11.476;2022-12-07T04:34:57;10.95;;;6.22;;
75167;SDS011;63748;48.088;11.476;2022-12-07T04:37:23;8.45;;;4.80;;
75167;SDS011;63748;48.088;11.476;2022-12-07T04:39:49;7.72;;;5.10;;
75167;SDS011;63748;48.088;11.476;2022-12-07T04:42:15;9.75;;;5.25;;
75167;SDS011;63748;48.088;11.476;2022-12-07T04:44:41;10.65;;;5.50;;
75167;SDS011;63748;48.088;11.476;2022-12-07T04:47:07;10.63;;;5.07;;
75167;SDS011;63748;48.088;11.476;2022-12-07T04:49:33;8.00;;;5.45;;
75167;SDS011;63748;48.088;11.476;2022-12-07T04:51:59;9.02;;;5.63;;
75167;SDS011;63748;48.088;11.476;2022-12-07T04:54:25;10.40;;;5.20;;
75167;SDS011;63748;48.088;11.476;2022-12-07T04:56:52;8.70;;;5.05;;
75167;SDS011;63748;48.088;11.476;2022-12-07T04:59:18;11.88;;;5.30;;
75167;SDS011;63748;48.088;11.476;2022-12-07T05:01:44;9.55;;;4.75;;
75167;SDS011;63748;48.088;11.476;2022-12-07T05:04:10;12.38;;;5.55;;
75167;SDS011;63748;48.088;11.476;2022-12-07T05:06:36;9.48;;;4.68;;
75167;SDS011;63748;48.088;11.476;2022-12-07T05:09:02;8.73;;;5.07;;
75167;SDS011;63748;48.088;11.476;2022-12-07T05:11:28;11.88;;;5.93;;
75167;SDS011;63748;48.088;11.476;2022-12-07T05:14:05;8.18;;;5.22;;
75167;SDS011;63748;48.088;11.476;2022-12-07T05:16:31;9.98;;;5.13;;
75167;SDS011;63748;48.088;11.476;2022-12-07T05:18:57;8.60;;;4.47;;
75167;SDS011;63748;48.088;11.476;2022-12-07T05:21:24;9.88;;;4.90;;
75167;SDS011;63748;48.088;11.476;2022-12-07T05:23:50;10.35;;;5.38;;
75167;SDS011;63748;48.088;11.476;2022-12-07T05:26:16;12.02;;;5.53;;
75167;SDS011;63748;48.088;11.476;2022-12-07T05:28:42;8.07;;;3.97;;
75167;SDS011;63748;48.088;11.476;2022-12-07T05:31:08;9.15;;;5.32;;
75167;SDS011;63748;48.088;11.476;2022-12-07T05:33:35;11.25;;;6.22;;
75167;SDS011;63748;48.088;11.476;2022-12-07T05:36:01;7.82;;;4.45;;
75167;SDS011;63748;48.088;11.476;2022-12-07T05:38:31;9.32;;;5.03;;
75167;SDS011;63748;48.088;11.476;2022-12-07T05:40:59;11.32;;;5.40;;
75167;SDS011;63748;48.088;11.476;2022-12-07T05:43:26;10.27;;;5.35;;
75167;SDS011;63748;48.088;11.476;2022-12-07T05:45:52;11.30;;;5.82;;
75167;SDS011;63748;48.088;11.476;2022-12-07T05:48:18;8.98;;;5.10;;
75167;SDS011;63748;48.088;11.476;2022-12-07T05:50:47;10.60;;;5.60;;
75167;SDS011;63748;48.088;11.476;2022-12-07T05:53:13;9.85;;;4.95;;
75167;SDS011;63748;48.088;11.476;2022-12-07T05:55:39;10.35;;;5.15;;
75167;SDS011;63748;48.088;11.476;2022-12-07T05:58:05;10.60;;;5.35;;
75167;SDS011;63748;48.088;11.476;2022-12-07T06:00:50;12.60;;;5.15;;
75167;SDS011;63748;48.088;11.476;2022-12-07T06:03:16;13.57;;;6.57;;
75167;SDS011;63748;48.088;11.476;2022-12-07T06:05:42;10.63;;;5.80;;
75167;SDS011;63748;48.088;11.476;2022-12-07T06:08:08;9.88;;;5.65;;
75167;SDS011;63748;48.088;11.476;2022-12-07T06:10:34;10.57;;;4.63;;
75167;SDS011;63748;48.088;11.476;2022-12-07T06:13:00;7.75;;;4.78;;
75167;SDS011;63748;48.088;11.476;2022-12-07T06:15:26;11.13;;;5.18;;
75167;SDS011;63748;48.088;11.476;2022-12-07T06:17:52;10.30;;;5.03;;
75167;SDS011;63748;48.088;11.476;2022-12-07T06:20:18;11.05;;;5.80;;
75167;SDS011;63748;48.088;11.476;2022-12-07T06:22:44;12.20;;;6.80;;
75167;SDS011;63748;48.088;11.476;2022-12-07T06:25:10;8.75;;;4.75;;
75167;SDS011;63748;48.088;11.476;2022-12-07T06:27:37;8.93;;;4.93;;
75167;SDS011;63748;48.088;11.476;2022-12-07T06:30:03;9.57;;;5.32;;
75167;SDS011;63748;48.088;11.476;2022-12-07T06:32:32;10.23;;;5.40;;
75167;SDS011;63748;48.088;11.476;2022-12-07T06:34:58;10.93;;;5.82;;
75167;SDS011;63748;48.088;11.476;2022-12-07T06:37:24;13.13;;;6.60;;
75167;SDS011;63748;48.088;11.476;2022-12-07T06:39:50;9.15;;;5.10;;
75167;SDS011;63748;48.088;11.476;2022-12-07T06:42:16;8.18;;;4.88;;
75167;SDS011;63748;48.088;11.476;2022-12-07T06:44:42;9.07;;;5.15;;
75167;SDS011;63748;48.088;11.476;2022-12-07T06:47:08;9.27;;;4.95;;
75167;SDS011;63748;48.088;11.476;2022-12-07T06:49:34;9.18;;;4.80;;
75167;SDS011;63748;48.088;11.476;2022-12-07T06:52:00;10.63;;;5.15;;
75167;SDS011;63748;48.088;11.476;2022-12-07T06:54:26;9.82;;;5.13;;
75167;SDS011;63748;48.088;11.476;2022-12-07T06:56:55;12.80;;;5.82;;
75167;SDS011;63748;48.088;11.476;2022-12-07T06:59:21;12.82;;;5.43;;
75167;SDS011;63748;48.088;11.476;2022-12-07T07:01:47;8.32;;;4.88;;
75167;SDS011;63748;48.088;11.476;2022-12-07T07:04:13;8.88;;;5.03;;
75167;SDS011;63748;48.088;11.476;2022-12-07T07:06:39;7.63;;;5.20;;
75167;SDS011;63748;48.088;11.476;2022-12-07T07:09:06;13.20;;;6.28;;
75167;SDS011;63748;48.088;11.476;2022-12-07T07:11:34;10.98;;;6.28;;
75167;SDS011;63748;48.088;11.476;2022-12-07T07:14:00;11.35;;;7.25;;
75167;SDS011;63748;48.088;11.476;2022-12-07T07:16:28;10.43;;;5.68;;
75167;SDS011;63748;48.088;11.476;2022-12-07T07:18:55;13.38;;;6.63;;
75167;SDS011;63748;48.088;11.476;2022-12-07T07:21:21;10.23;;;5.60;;
75167;SDS011;63748;48.088;11.476;2022-12-07T07:23:47;12.25;;;5.63;;
75167;SDS011;63748;48.088;11.476;2022-12-07T07:26:13;9.50;;;5.40;;
75167;SDS011;63748;48.088;11.476;2022-12-07T07:28:39;10.60;;;5.35;;
75167;SDS011;63748;48.088;11.476;2022-12-07T07:31:05;11.55;;;4.50;;
75167;SDS011;63748;48.088;11.476;2022-12-07T07:33:31;9.52;;;5.47;;
75167;SDS011;63748;48.088;11.476;2022-12-07T07:35:57;10.93;;;5.72;;
75167;SDS011;63748;48.088;11.476;2022-12-07T07:38:23;9.68;;;4.82;;
75167;SDS011;63748;48.088;11.476;2022-12-07T07:40:49;9.68;;;5.30;;
75167;SDS011;63748;48.088;11.476;2022-12-07T07:43:15;7.57;;;3.90;;
75167;SDS011;63748;48.088;11.476;2022-12-07T07:45:41;11.23;;;5.78;;
75167;SDS011;63748;48.088;11.476;2022-12-07T07:48:07;10.30;;;5.15;;
75167;SDS011;63748;48.088;11.476;2022-12-07T07:50:33;11.60;;;5.35;;
75167;SDS011;63748;48.088;11.476;2022-12-07T07:52:59;12.90;;;5.20;;
75167;SDS011;63748;48.088;11.476;2022-12-07T07:55:25;10.23;;;4.57;;
75167;SDS011;63748;48.088;11.476;2022-12-07T07:57:51;9.43;;;4.82;;
75167;SDS011;63748;48.088;11.476;2022-12-07T08:00:17;10.15;;;5.07;;
75167;SDS011;63748;48.088;11.476;2022-12-07T08:02:44;8.70;;;4.82;;
75167;SDS011;63748;48.088;11.476;2022-12-07T08:05:11;7.68;;;4.82;;
75167;SDS011;63748;48.088;11.476;2022-12-07T08:07:37;8.98;;;5.32;;
75167;SDS011;63748;48.088;11.476;2022-12-07T08:10:04;10.90;;;5.10;;
75167;SDS011;63748;48.088;11.476;2022-12-07T08:12:30;6.65;;;4.90;;
75167;SDS011;63748;48.088;11.476;2022-12-07T08:14:56;9.15;;;4.85;;
75167;SDS011;63748;48.088;11.476;2022-12-07T08:17:22;9.20;;;5.47;;
75167;SDS011;63748;48.088;11.476;2022-12-07T08:19:48;10.80;;;5.78;;
75167;SDS011;63748;48.088;11.476;2022-12-07T08:22:14;10.60;;;5.47;;
75167;SDS011;63748;48.088;11.476;2022-12-07T08:24:41;9.82;;;5.93;;
75167;SDS011;63748;48.088;11.476;2022-12-07T08:27:07;9.40;;;4.57;;
75167;SDS011;63748;48.088;11.476;2022-12-07T08:29:33;13.57;;;6.43;;
75167;SDS011;63748;48.088;11.476;2022-12-07T08:31:59;9.13;;;4.82;;
75167;SDS011;63748;48.088;11.476;2022-12-07T08:34:26;9.65;;;5.28;;
75167;SDS011;63748;48.088;11.476;2022-12-07T08:36:52;11.52;;;5.82;;
75167;SDS011;63748;48.088;11.476;2022-12-07T08:39:18;11.40;;;5.20;;
75167;SDS011;63748;48.088;11.476;2022-12-07T08:41:45;13.73;;;5.68;;
75167;SDS011;63748;48.088;11.476;2022-12-07T08:44:11;12.27;;;6.10;;
75167;SDS011;63748;48.088;11.476;2022-12-07T08:46:41;9.35;;;5.70;;
75167;SDS011;63748;48.088;11.476;2022-12-07T08:49:12;10.25;;;4.88;;
75167;SDS011;63748;48.088;11.476;2022-12-07T08:51:39;9.98;;;5.35;;
75167;SDS011;63748;48.088;11.476;2022-12-07T08:54:07;12.95;;;6.47;;
75167;SDS011;63748;48.088;11.476;2022-12-07T08:56:33;11.70;;;5.47;;
75167;SDS011;63748;48.088;11.476;2022-12-07T08:59:00;13.57;;;6.68;;
75167;SDS011;63748;48.088;11.476;2022-12-07T09:01:26;10.10;;;5.20;;
75167;SDS011;63748;48.088;11.476;2022-12-07T09:03:52;8.10;;;3.47;;
75167;SDS011;63748;48.088;11.476;2022-12-07T09:06:18;10.73;;;5.75;;
75167;SDS011;63748;48.088;11.476;2022-12-07T09:08:46;10.65;;;5.35;;
75167;SDS011;63748;48.088;11.476;2022-12-07T09:11:13;9.27;;;5.07;;
75167;SDS011;63748;48.088;11.476;2022-12-07T09:13:39;7.18;;;4.88;;
75167;SDS011;63748;48.088;11.476;2022-12-07T09:16:05;10.88;;;5.63;;
75167;SDS011;63748;48.088;11.476;2022-12-07T09:18:31;10.95;;;5.45;;
75167;SDS011;63748;48.088;11.476;2022-12-07T09:20:57;7.97;;;4.28;;
75167;SDS011;63748;48.088;11.476;2022-12-07T09:23:23;7.80;;;4.03;;
75167;SDS011;63748;48.088;11.476;2022-12-07T09:25:49;7.95;;;4.65;;
75167;SDS011;63748;48.088;11.476;2022-12-07T09:28:16;10.15;;;5.00;;
75167;SDS011;63748;48.088;11.476;2022-12-07T09:30:48;11.88;;;5.78;;
75167;SDS011;63748;48.088;11.476;2022-12-07T09:33:14;10.70;;;5.95;;
75167;SDS011;63748;48.088;11.476;2022-12-07T09:35:44;9.50;;;4.60;;
75167;SDS011;63748;48.088;11.476;2022-12-07T09:38:10;11.77;;;5.43;;
75167;SDS011;63748;48.088;11.476;2022-12-07T09:40:37;9.00;;;4.70;;
75167;SDS011;63748;48.088;11.476;2022-12-07T09:43:03;9.55;;;4.68;;
75167;SDS011;63748;48.088;11.476;2022-12-07T09:45:33;10.25;;;4.50;;
75167;SDS011;63748;48.088;11.476;2022-12-07T09:48:00;10.50;;;5.05;;
75167;SDS011;63748;48.088;11.476;2022-12-07T09:50:27;7.18;;;4.07;;
75167;SDS011;63748;48.088;11.476;2022-12-07T09:52:54;6.97;;;4.25;;
75167;SDS011;63748;48.088;11.476;2022-12-07T09:55:26;13.30;;;5.55;;
75167;SDS011;63748;48.088;11.476;2022-12-07T09:57:53;8.15;;;5.07;;
75167;SDS011;63748;48.088;11.476;2022-12-07T10:00:20;11.85;;;5.65;;
75167;SDS011;63748;48.088;11.476;2022-12-07T10:05:38;10.35;;;5.03;;
75167;SDS011;63748;48.088;11.476;2022-12-07T10:08:03;10.27;;;4.85;;
75167;SDS011;63748;48.088;11.476;2022-12-07T10:10:30;7.75;;;5.53;;
75167;SDS011;63748;48.088;11.476;2022-12-07T10:13:00;9.95;;;5.10;;
75167;SDS011;63748;48.088;11.476;2022-12-07T10:15:43;10.73;;;5.15;;
75167;SDS011;63748;48.088;11.476;2022-12-07T10:18:29;11.43;;;4.78;;
75167;SDS011;63748;48.088;11.476;2022-12-07T10:23:28;9.32;;;4.75;;
75167;SDS011;63748;48.088;11.476;2022-12-07T10:25:54;7.95;;;3.97;;
75167;SDS011;63748;48.088;11.476;2022-12-07T10:28:20;9.70;;;4.82;;
75167;SDS011;63748;48.088;11.476;2022-12-07T10:30:57;9.65;;;4.93;;
75167;SDS011;63748;48.088;11.476;2022-12-07T10:33:34;7.95;;;4.03;;
75167;SDS011;63748;48.088;11.476;2022-12-07T10:36:09;8.35;;;4.25;;
75167;SDS011;63748;48.088;11.476;2022-12-07T10:38:44;6.32;;;4.07;;
75167;SDS011;63748;48.088;11.476;2022-12-07T10:41:10;9.40;;;3.75;;
75167;SDS011;63748;48.088;11.476;2022-12-07T10:43:36;10.20;;;4.55;;
75167;SDS011;63748;48.088;11.476;2022-12-07T10:48:40;10.27;;;3.88;;
75167;SDS011;63748;48.088;11.476;2022-12-07T10:56:43;7.57;;;4.15;;
75167;SDS011;63748;48.088;11.476;2022-12-07T11:06:47;7.43;;;4.38;;
75167;SDS011;63748;48.088;11.476;2022-12-07T11:12:13;6.95;;;3.90;;
75167;SDS011;63748;48.088;11.476;2022-12-07T11:14:52;5.28;;;2.90;;
75167;SDS011;63748;48.088;11.476;2022-12-07T11:22:41;5.13;;;3.03;;
75167;SDS011;63748;48.088;11.476;2022-12-07T11:25:17;4.13;;;1.92;;
75167;SDS011;63748;48.088;11.476;2022-12-07T11:30:14;5.68;;;3.30;;
75167;SDS011;63748;48.088;11.476;2022-12-07T11:32:49;5.32;;;3.17;;
75167;SDS011;63748;48.088;11.476;2022-12-07T11:37:42;5.45;;;4.18;;
75167;SDS011;63748;48.088;11.476;2022-12-07T11:42:39;5.93;;;3.42;;
75167;SDS011;63748;48.088;11.476;2022-12-07T11:47:46;5.35;;;3.15;;
75167;SDS011;63748;48.088;11.476;2022-12-07T11:50:18;5.22;;;3.22;;
75167;SDS011;63748;48.088;11.476;2022-12-07T11:52:48;6.18;;;3.28;;
75167;SDS011;63748;48.088;11.476;2022-12-07T11:56:02;6.50;;;4.30;;
75167;SDS011;63748;48.088;11.476;2022-12-07T11:58:04;5.15;;;3.28;;
75167;SDS011;63748;48.088;11.476;2022-12-07T12:00:30;5.70;;;3.33;;
75167;SDS011;63748;48.088;11.476;2022-12-07T12:03:04;6.35;;;3.60;;
75167;SDS011;63748;48.088;11.476;2022-12-07T12:05:34;5.30;;;3.40;;
75167;SDS011;63748;48.088;11.476;2022-12-07T12:16:05;7.55;;;3.70;;
75167;SDS011;63748;48.088;11.476;2022-12-07T12:21:09;6.43;;;3.35;;
75167;SDS011;63748;48.088;11.476;2022-12-07T12:23:51;7.13;;;3.75;;
75167;SDS011;63748;48.088;11.476;2022-12-07T12:26:21;4.85;;;2.67;;
75167;SDS011;63748;48.088;11.476;2022-12-07T12:29:02;8.52;;;3.83;;
75167;SDS011;63748;48.088;11.476;2022-12-07T12:31:31;5.68;;;3.08;;
75167;SDS011;63748;48.088;11.476;2022-12-07T12:34:00;7.85;;;3.97;;
75167;SDS011;63748;48.088;11.476;2022-12-07T12:36:43;7.28;;;3.20;;
75167;SDS011;63748;48.088;11.476;2022-12-07T12:47:02;7.25;;;3.90;;
75167;SDS011;63748;48.088;11.476;2022-12-07T12:49:36;7.40;;;3.83;;
75167;SDS011;63748;48.088;11.476;2022-12-07T12:55:30;5.85;;;3.28;;
75167;SDS011;63748;48.088;11.476;2022-12-07T12:57:36;4.28;;;2.60;;
75167;SDS011;63748;48.088;11.476;2022-12-07T13:00:14;5.75;;;3.50;;
75167;SDS011;63748;48.088;11.476;2022-12-07T13:02:56;7.20;;;3.67;;
75167;SDS011;63748;48.088;11.476;2022-12-07T13:05:28;5.70;;;2.17;;
75167;SDS011;63748;48.088;11.476;2022-12-07T13:08:01;6.45;;;3.70;;
75167;SDS011;63748;48.088;11.476;2022-12-07T13:12:55;5.18;;;3.20;;
75167;SDS011;63748;48.088;11.476;2022-12-07T13:18:01;6.38;;;3.83;;
75167;SDS011;63748;48.088;11.476;2022-12-07T13:20:41;7.32;;;3.75;;
75167;SDS011;63748;48.088;11.476;2022-12-07T13:23:08;5.15;;;3.60;;
75167;SDS011;63748;48.088;11.476;2022-12-07T13:25:41;7.43;;;3.83;;
75167;SDS011;63748;48.088;11.476;2022-12-07T13:30:40;5.55;;;2.97;;
75167;SDS011;63748;48.088;11.476;2022-12-07T13:33:09;7.15;;;3.50;;
75167;SDS011;63748;48.088;11.476;2022-12-07T13:35:36;5.78;;;3.25;;
75167;SDS011;63748;48.088;11.476;2022-12-07T13:38:13;5.38;;;3.85;;
75167;SDS011;63748;48.088;11.476;2022-12-07T13:40:40;6.40;;;3.63;;
75167;SDS011;63748;48.088;11.476;2022-12-07T13:43:12;6.85;;;3.40;;
75167;SDS011;63748;48.088;11.476;2022-12-07T13:45:40;6.50;;;3.30;;
75167;SDS011;63748;48.088;11.476;2022-12-07T13:50:55;7.07;;;3.83;;
75167;SDS011;63748;48.088;11.476;2022-12-07T13:53:21;5.38;;;3.65;;
75167;SDS011;63748;48.088;11.476;2022-12-07T13:55:47;6.07;;;3.45;;
75167;SDS011;63748;48.088;11.476;2022-12-07T13:58:13;6.22;;;3.40;;
75167;SDS011;63748;48.088;11.476;2022-12-07T14:00:40;5.70;;;2.75;;
75167;SDS011;63748;48.088;11.476;2022-12-07T14:05:39;7.28;;;4.13;;
75167;SDS011;63748;48.088;11.476;2022-12-07T14:08:26;7.38;;;4.22;;
75167;SDS011;63748;48.088;11.476;2022-12-07T14:13:22;7.38;;;4.15;;
75167;SDS011;63748;48.088;11.476;2022-12-07T14:15:51;6.93;;;3.67;;
75167;SDS011;63748;48.088;11.476;2022-12-07T14:18:25;7.20;;;3.88;;
75167;SDS011;63748;48.088;11.476;2022-12-07T14:21:02;6.38;;;3.67;;
75167;SDS011;63748;48.088;11.476;2022-12-07T14:23:28;8.00;;;3.50;;
75167;SDS011;63748;48.088;11.476;2022-12-07T14:26:03;6.63;;;3.38;;
75167;SDS011;63748;48.088;11.476;2022-12-07T14:28:31;7.15;;;3.10;;
75167;SDS011;63748;48.088;11.476;2022-12-07T14:30:58;7.72;;;3.72;;
75167;SDS011;63748;48.088;11.476;2022-12-07T14:33:24;6.72;;;3.47;;
75167;SDS011;63748;48.088;11.476;2022-12-07T14:35:51;5.85;;;3.42;;
75167;SDS011;63748;48.088;11.476;2022-12-07T14:38:24;5.78;;;3.20;;
75167;SDS011;63748;48.088;11.476;2022-12-07T14:40:51;8.98;;;3.67;;
75167;SDS011;63748;48.088;11.476;2022-12-07T14:43:18;7.50;;;3.47;;
75167;SDS011;63748;48.088;11.476;2022-12-07T14:45:45;5.80;;;3.38;;
75167;SDS011;63748;48.088;11.476;2022-12-07T14:48:11;9.93;;;3.65;;
75167;SDS011;63748;48.088;11.476;2022-12-07T14:50:42;5.75;;;3.22;;
75167;SDS011;63748;48.088;11.476;2022-12-07T14:53:12;6.68;;;3.53;;
75167;SDS011;63748;48.088;11.476;2022-12-07T14:55:39;8.18;;;4.50;;
75167;SDS011;63748;48.088;11.476;2022-12-07T14:58:05;8.82;;;4.28;;
75167;SDS011;63748;48.088;11.476;2022-12-07T15:00:31;6.47;;;3.67;;
75167;SDS011;63748;48.088;11.476;2022-12-07T15:02:59;6.40;;;3.42;;
75167;SDS011;63748;48.088;11.476;2022-12-07T15:05:25;6.22;;;3.40;;
75167;SDS011;63748;48.088;11.476;2022-12-07T15:07:51;6.50;;;3.83;;
75167;SDS011;63748;48.088;11.476;2022-12-07T15:10:22;6.55;;;3.78;;
75167;SDS011;63748;48.088;11.476;2022-12-07T15:12:48;6.13;;;3.22;;
75167;SDS011;63748;48.088;11.476;2022-12-07T15:15:14;5.38;;;3.15;;
75167;SDS011;63748;48.088;11.476;2022-12-07T15:17:40;5.70;;;3.00;;
75167;SDS011;63748;48.088;11.476;2022-12-07T15:20:11;5.15;;;3.20;;
75167;SDS011;63748;48.088;11.476;2022-12-07T15:22:37;8.02;;;3.60;;
75167;SDS011;63748;48.088;11.476;2022-12-07T15:25:03;6.05;;;2.95;;
75167;SDS011;63748;48.088;11.476;2022-12-07T15:27:30;5.60;;;3.00;;
75167;SDS011;63748;48.088;11.476;2022-12-07T15:29:57;6.70;;;3.30;;
75167;SDS011;63748;48.088;11.476;2022-12-07T15:32:23;5.80;;;3.15;;
75167;SDS011;63748;48.088;11.476;2022-12-07T15:34:49;5.78;;;2.97;;
75167;SDS011;63748;48.088;11.476;2022-12-07T15:37:15;7.47;;;3.90;;
75167;SDS011;63748;48.088;11.476;2022-12-07T15:39:41;6.65;;;3.53;;
75167;SDS011;63748;48.088;11.476;2022-12-07T15:42:07;6.85;;;3.30;;
75167;SDS011;63748;48.088;11.476;2022-12-07T15:44:33;7.13;;;3.78;;
75167;SDS011;63748;48.088;11.476;2022-12-07T15:47:18;6.28;;;3.30;;
75167;SDS011;63748;48.088;11.476;2022-12-07T15:49:45;7.30;;;3.63;;
75167;SDS011;63748;48.088;11.476;2022-12-07T15:52:11;4.60;;;3.10;;
75167;SDS011;63748;48.088;11.476;2022-12-07T15:54:37;7.53;;;3.22;;
75167;SDS011;63748;48.088;11.476;2022-12-07T15:57:04;8.02;;;3.60;;
75167;SDS011;63748;48.088;11.476;2022-12-07T15:59:30;5.80;;;2.95;;
75167;SDS011;63748;48.088;11.476;2022-12-07T16:01:56;6.85;;;3.25;;
75167;SDS011;63748;48.088;11.476;2022-12-07T16:04:22;6.03;;;3.15;;
75167;SDS011;63748;48.088;11.476;2022-12-07T16:06:48;6.18;;;3.20;;
75167;SDS011;63748;48.088;11.476;2022-12-07T16:09:15;6.85;;;3.90;;
75167;SDS011;63748;48.088;11.476;2022-12-07T16:11:41;7.15;;;3.50;;
75167;SDS011;63748;48.088;11.476;2022-12-07T16:14:07;7.35;;;4.20;;
75167;SDS011;63748;48.088;11.476;2022-12-07T16:16:34;7.75;;;4.35;;
75167;SDS011;63748;48.088;11.476;2022-12-07T16:19:00;12.82;;;5.88;;
75167;SDS011;63748;48.088;11.476;2022-12-07T16:21:26;11.73;;;5.65;;